sensor_id;sensor_type;location;lat;lon;timestamp;P1;durP1;ratioP1;P2;durP2;ratioP2
36355;SDS011;22384;54.302;18.596;2023-05-07T00:01:37;12.13;;;4.82;;
36355;SDS011;22384;54.302;18.596;2023-05-07T00:04:04;9.55;;;4.65;;
36355;SDS011;22384;54.302;18.596;2023-05-07T00:06:30;13.10;;;4.80;;
36355;SDS011;22384;54.302;18.596;2023-05-07T00:08:56;8.23;;;4.78;;
36355;SDS011;22384;54.302;18.596;2023-05-07T00:11:22;11.80;;;5.00;;
36355;SDS011;22384;54.302;18.596;2023-05-07T00:13:48;7.70;;;4.88;;
36355;SDS011;22384;54.302;18.596;2023-05-07T00:16:15;9.25;;;4.75;;
36355;SDS011;22384;54.302;18.596;2023-05-07T00:18:41;10.85;;;4.75;;
36355;SDS011;22384;54.302;18.596;2023-05-07T00:21:07;13.05;;;5.00;;
36355;SDS011;22384;54.302;18.596;2023-05-07T00:23:33;13.02;;;4.65;;
36355;SDS011;22384;54.302;18.596;2023-05-07T00:25:59;12.25;;;4.55;;
36355;SDS011;22384;54.302;18.596;2023-05-07T00:28:25;12.88;;;4.55;;
36355;SDS011;22384;54.302;18.596;2023-05-07T00:30:51;9.95;;;4.63;;
36355;SDS011;22384;54.302;18.596;2023-05-07T00:33:17;8.48;;;4.45;;
36355;SDS011;22384;54.302;18.596;2023-05-07T00:35:45;13.52;;;4.70;;
36355;SDS011;22384;54.302;18.596;2023-05-07T00:38:11;10.50;;;4.30;;
36355;SDS011;22384;54.302;18.596;2023-05-07T00:40:37;8.20;;;4.20;;
36355;SDS011;22384;54.302;18.596;2023-05-07T00:43:03;5.78;;;4.03;;
36355;SDS011;22384;54.302;18.596;2023-05-07T00:45:29;9.43;;;4.30;;
36355;SDS011;22384;54.302;18.596;2023-05-07T00:47:55;8.30;;;4.38;;
36355;SDS011;22384;54.302;18.596;2023-05-07T00:50:23;6.68;;;3.83;;
36355;SDS011;22384;54.302;18.596;2023-05-07T00:52:49;9.40;;;4.53;;
36355;SDS011;22384;54.302;18.596;2023-05-07T00:55:15;9.40;;;3.63;;
36355;SDS011;22384;54.302;18.596;2023-05-07T00:57:41;8.13;;;3.67;;
36355;SDS011;22384;54.302;18.596;2023-05-07T01:00:08;6.35;;;3.70;;
36355;SDS011;22384;54.302;18.596;2023-05-07T01:02:35;8.18;;;3.90;;
36355;SDS011;22384;54.302;18.596;2023-05-07T01:05:01;10.05;;;4.78;;
36355;SDS011;22384;54.302;18.596;2023-05-07T01:07:28;8.60;;;4.30;;
36355;SDS011;22384;54.302;18.596;2023-05-07T01:09:54;11.48;;;4.45;;
36355;SDS011;22384;54.302;18.596;2023-05-07T01:12:21;8.63;;;3.92;;
36355;SDS011;22384;54.302;18.596;2023-05-07T01:14:47;8.80;;;3.90;;
36355;SDS011;22384;54.302;18.596;2023-05-07T01:17:14;6.85;;;4.05;;
36355;SDS011;22384;54.302;18.596;2023-05-07T01:19:41;10.48;;;3.75;;
36355;SDS011;22384;54.302;18.596;2023-05-07T01:22:08;10.20;;;4.25;;
36355;SDS011;22384;54.302;18.596;2023-05-07T01:24:35;10.20;;;4.80;;
36355;SDS011;22384;54.302;18.596;2023-05-07T01:27:02;8.82;;;3.88;;
36355;SDS011;22384;54.302;18.596;2023-05-07T01:29:28;17.85;;;4.18;;
36355;SDS011;22384;54.302;18.596;2023-05-07T01:31:55;9.10;;;3.78;;
36355;SDS011;22384;54.302;18.596;2023-05-07T01:34:22;10.27;;;4.57;;
36355;SDS011;22384;54.302;18.596;2023-05-07T01:36:52;10.25;;;4.20;;
36355;SDS011;22384;54.302;18.596;2023-05-07T01:39:18;10.75;;;4.50;;
36355;SDS011;22384;54.302;18.596;2023-05-07T01:41:44;8.88;;;4.03;;
36355;SDS011;22384;54.302;18.596;2023-05-07T01:44:10;8.00;;;4.47;;
36355;SDS011;22384;54.302;18.596;2023-05-07T01:46:38;8.80;;;4.05;;
36355;SDS011;22384;54.302;18.596;2023-05-07T01:49:04;7.95;;;3.72;;
36355;SDS011;22384;54.302;18.596;2023-05-07T01:51:30;9.05;;;4.07;;
36355;SDS011;22384;54.302;18.596;2023-05-07T01:53:56;5.72;;;3.50;;
36355;SDS011;22384;54.302;18.596;2023-05-07T01:56:23;11.82;;;4.00;;
36355;SDS011;22384;54.302;18.596;2023-05-07T01:58:49;10.35;;;4.18;;
36355;SDS011;22384;54.302;18.596;2023-05-07T02:01:16;7.10;;;4.28;;
36355;SDS011;22384;54.302;18.596;2023-05-07T02:03:42;11.48;;;4.90;;
36355;SDS011;22384;54.302;18.596;2023-05-07T02:06:08;8.80;;;4.63;;
36355;SDS011;22384;54.302;18.596;2023-05-07T02:08:34;9.27;;;4.40;;
36355;SDS011;22384;54.302;18.596;2023-05-07T02:11:01;17.02;;;5.70;;
36355;SDS011;22384;54.302;18.596;2023-05-07T02:13:31;10.75;;;5.38;;
36355;SDS011;22384;54.302;18.596;2023-05-07T02:18:23;15.32;;;5.80;;
36355;SDS011;22384;54.302;18.596;2023-05-07T02:20:49;14.48;;;6.22;;
36355;SDS011;22384;54.302;18.596;2023-05-07T02:23:15;11.20;;;5.10;;
36355;SDS011;22384;54.302;18.596;2023-05-07T02:25:41;17.10;;;6.40;;
36355;SDS011;22384;54.302;18.596;2023-05-07T02:28:07;11.50;;;5.78;;
36355;SDS011;22384;54.302;18.596;2023-05-07T02:30:33;11.70;;;5.72;;
36355;SDS011;22384;54.302;18.596;2023-05-07T02:32:59;14.23;;;5.93;;
36355;SDS011;22384;54.302;18.596;2023-05-07T02:35:25;17.80;;;7.80;;
36355;SDS011;22384;54.302;18.596;2023-05-07T02:37:51;16.83;;;7.90;;
36355;SDS011;22384;54.302;18.596;2023-05-07T02:40:18;14.07;;;6.15;;
36355;SDS011;22384;54.302;18.596;2023-05-07T02:42:44;13.77;;;5.47;;
36355;SDS011;22384;54.302;18.596;2023-05-07T02:45:10;11.65;;;6.18;;
36355;SDS011;22384;54.302;18.596;2023-05-07T02:47:36;11.60;;;5.70;;
36355;SDS011;22384;54.302;18.596;2023-05-07T02:50:02;10.85;;;5.75;;
36355;SDS011;22384;54.302;18.596;2023-05-07T02:52:28;13.65;;;5.40;;
36355;SDS011;22384;54.302;18.596;2023-05-07T02:54:54;12.95;;;5.97;;
36355;SDS011;22384;54.302;18.596;2023-05-07T02:57:20;9.07;;;5.45;;
36355;SDS011;22384;54.302;18.596;2023-05-07T02:59:46;11.82;;;5.03;;
36355;SDS011;22384;54.302;18.596;2023-05-07T03:02:12;12.88;;;4.30;;
36355;SDS011;22384;54.302;18.596;2023-05-07T03:04:39;14.77;;;5.18;;
36355;SDS011;22384;54.302;18.596;2023-05-07T03:07:05;12.68;;;5.28;;
36355;SDS011;22384;54.302;18.596;2023-05-07T03:09:31;12.13;;;5.63;;
36355;SDS011;22384;54.302;18.596;2023-05-07T03:11:57;14.07;;;5.70;;
36355;SDS011;22384;54.302;18.596;2023-05-07T03:14:23;10.90;;;5.03;;
36355;SDS011;22384;54.302;18.596;2023-05-07T03:16:49;9.38;;;5.07;;
36355;SDS011;22384;54.302;18.596;2023-05-07T03:19:15;17.20;;;6.18;;
36355;SDS011;22384;54.302;18.596;2023-05-07T03:21:41;11.57;;;5.05;;
36355;SDS011;22384;54.302;18.596;2023-05-07T03:24:07;11.10;;;5.45;;
36355;SDS011;22384;54.302;18.596;2023-05-07T03:26:33;17.55;;;5.68;;
36355;SDS011;22384;54.302;18.596;2023-05-07T03:28:59;11.35;;;5.22;;
36355;SDS011;22384;54.302;18.596;2023-05-07T03:31:25;11.13;;;5.13;;
36355;SDS011;22384;54.302;18.596;2023-05-07T03:33:52;8.45;;;4.47;;
36355;SDS011;22384;54.302;18.596;2023-05-07T03:36:18;12.35;;;5.50;;
36355;SDS011;22384;54.302;18.596;2023-05-07T03:38:44;11.48;;;5.50;;
36355;SDS011;22384;54.302;18.596;2023-05-07T03:41:11;15.48;;;6.13;;
36355;SDS011;22384;54.302;18.596;2023-05-07T03:43:37;15.70;;;5.60;;
36355;SDS011;22384;54.302;18.596;2023-05-07T03:46:03;13.43;;;5.78;;
36355;SDS011;22384;54.302;18.596;2023-05-07T03:48:29;12.45;;;5.60;;
36355;SDS011;22384;54.302;18.596;2023-05-07T03:50:55;10.45;;;5.97;;
36355;SDS011;22384;54.302;18.596;2023-05-07T03:53:21;13.40;;;5.90;;
36355;SDS011;22384;54.302;18.596;2023-05-07T03:55:47;10.98;;;5.80;;
36355;SDS011;22384;54.302;18.596;2023-05-07T03:58:14;14.13;;;5.88;;
36355;SDS011;22384;54.302;18.596;2023-05-07T04:00:40;15.18;;;5.80;;
36355;SDS011;22384;54.302;18.596;2023-05-07T04:03:06;13.40;;;5.43;;
36355;SDS011;22384;54.302;18.596;2023-05-07T04:05:32;12.50;;;6.18;;
36355;SDS011;22384;54.302;18.596;2023-05-07T04:07:58;13.05;;;6.65;;
36355;SDS011;22384;54.302;18.596;2023-05-07T04:10:25;14.52;;;5.30;;
36355;SDS011;22384;54.302;18.596;2023-05-07T04:12:51;10.82;;;4.82;;
36355;SDS011;22384;54.302;18.596;2023-05-07T04:15:17;17.15;;;5.65;;
36355;SDS011;22384;54.302;18.596;2023-05-07T04:17:43;13.02;;;5.43;;
36355;SDS011;22384;54.302;18.596;2023-05-07T04:20:10;15.45;;;5.20;;
36355;SDS011;22384;54.302;18.596;2023-05-07T04:22:36;8.60;;;5.03;;
36355;SDS011;22384;54.302;18.596;2023-05-07T04:25:02;8.07;;;4.68;;
36355;SDS011;22384;54.302;18.596;2023-05-07T04:27:29;13.02;;;5.13;;
36355;SDS011;22384;54.302;18.596;2023-05-07T04:29:55;16.85;;;4.75;;
36355;SDS011;22384;54.302;18.596;2023-05-07T04:32:21;9.80;;;5.60;;
36355;SDS011;22384;54.302;18.596;2023-05-07T04:34:49;14.93;;;6.18;;
36355;SDS011;22384;54.302;18.596;2023-05-07T04:37:16;11.68;;;6.00;;
36355;SDS011;22384;54.302;18.596;2023-05-07T04:39:42;12.32;;;5.10;;
36355;SDS011;22384;54.302;18.596;2023-05-07T04:42:08;12.82;;;6.20;;
36355;SDS011;22384;54.302;18.596;2023-05-07T04:44:35;10.63;;;5.00;;
36355;SDS011;22384;54.302;18.596;2023-05-07T04:47:02;13.65;;;4.82;;
36355;SDS011;22384;54.302;18.596;2023-05-07T04:49:28;10.88;;;4.05;;
36355;SDS011;22384;54.302;18.596;2023-05-07T04:51:54;7.53;;;4.18;;
36355;SDS011;22384;54.302;18.596;2023-05-07T04:54:20;5.53;;;3.55;;
36355;SDS011;22384;54.302;18.596;2023-05-07T04:56:46;8.77;;;4.10;;
36355;SDS011;22384;54.302;18.596;2023-05-07T04:59:12;9.15;;;3.72;;
36355;SDS011;22384;54.302;18.596;2023-05-07T05:01:38;11.55;;;3.67;;
36355;SDS011;22384;54.302;18.596;2023-05-07T05:04:05;9.40;;;3.72;;
36355;SDS011;22384;54.302;18.596;2023-05-07T05:06:31;9.30;;;3.40;;
36355;SDS011;22384;54.302;18.596;2023-05-07T05:08:57;5.70;;;3.25;;
36355;SDS011;22384;54.302;18.596;2023-05-07T05:11:23;5.68;;;3.17;;
36355;SDS011;22384;54.302;18.596;2023-05-07T05:13:49;14.00;;;3.78;;
36355;SDS011;22384;54.302;18.596;2023-05-07T05:16:15;12.10;;;3.33;;
36355;SDS011;22384;54.302;18.596;2023-05-07T05:18:41;7.38;;;3.60;;
36355;SDS011;22384;54.302;18.596;2023-05-07T05:21:07;12.25;;;3.67;;
36355;SDS011;22384;54.302;18.596;2023-05-07T05:23:33;15.40;;;7.22;;
36355;SDS011;22384;54.302;18.596;2023-05-07T05:25:59;46.75;;;33.58;;
36355;SDS011;22384;54.302;18.596;2023-05-07T05:28:25;22.10;;;18.60;;
36355;SDS011;22384;54.302;18.596;2023-05-07T05:30:53;8.57;;;3.90;;
36355;SDS011;22384;54.302;18.596;2023-05-07T05:33:19;6.18;;;3.85;;
36355;SDS011;22384;54.302;18.596;2023-05-07T05:35:45;7.68;;;2.90;;
36355;SDS011;22384;54.302;18.596;2023-05-07T05:38:11;18.65;;;9.73;;
36355;SDS011;22384;54.302;18.596;2023-05-07T05:40:37;15.27;;;8.68;;
36355;SDS011;22384;54.302;18.596;2023-05-07T05:43:03;11.48;;;5.03;;
36355;SDS011;22384;54.302;18.596;2023-05-07T05:45:29;4.25;;;2.90;;
36355;SDS011;22384;54.302;18.596;2023-05-07T05:47:56;25.80;;;11.68;;
36355;SDS011;22384;54.302;18.596;2023-05-07T05:50:22;14.45;;;6.10;;
36355;SDS011;22384;54.302;18.596;2023-05-07T05:52:48;15.95;;;3.97;;
36355;SDS011;22384;54.302;18.596;2023-05-07T05:55:14;20.90;;;7.00;;
36355;SDS011;22384;54.302;18.596;2023-05-07T05:57:40;24.50;;;10.23;;
36355;SDS011;22384;54.302;18.596;2023-05-07T06:00:06;9.52;;;5.88;;
36355;SDS011;22384;54.302;18.596;2023-05-07T06:02:33;8.20;;;4.38;;
36355;SDS011;22384;54.302;18.596;2023-05-07T06:04:59;10.07;;;3.67;;
36355;SDS011;22384;54.302;18.596;2023-05-07T06:07:25;6.07;;;2.63;;
36355;SDS011;22384;54.302;18.596;2023-05-07T06:09:51;5.22;;;2.78;;
36355;SDS011;22384;54.302;18.596;2023-05-07T06:12:17;12.63;;;7.18;;
36355;SDS011;22384;54.302;18.596;2023-05-07T06:14:43;8.27;;;4.45;;
36355;SDS011;22384;54.302;18.596;2023-05-07T06:17:09;7.68;;;3.45;;
36355;SDS011;22384;54.302;18.596;2023-05-07T06:19:35;3.70;;;2.58;;
36355;SDS011;22384;54.302;18.596;2023-05-07T06:22:01;6.93;;;4.40;;
36355;SDS011;22384;54.302;18.596;2023-05-07T06:24:27;11.50;;;5.78;;
36355;SDS011;22384;54.302;18.596;2023-05-07T06:26:53;8.63;;;2.80;;
36355;SDS011;22384;54.302;18.596;2023-05-07T06:29:20;12.25;;;4.40;;
36355;SDS011;22384;54.302;18.596;2023-05-07T06:31:46;5.95;;;2.65;;
36355;SDS011;22384;54.302;18.596;2023-05-07T06:34:12;11.73;;;5.25;;
36355;SDS011;22384;54.302;18.596;2023-05-07T06:36:39;7.05;;;4.53;;
36355;SDS011;22384;54.302;18.596;2023-05-07T06:39:06;8.40;;;4.50;;
36355;SDS011;22384;54.302;18.596;2023-05-07T06:41:32;22.90;;;14.48;;
36355;SDS011;22384;54.302;18.596;2023-05-07T06:43:58;30.55;;;17.45;;
36355;SDS011;22384;54.302;18.596;2023-05-07T06:46:24;8.40;;;4.50;;
36355;SDS011;22384;54.302;18.596;2023-05-07T06:48:50;14.85;;;8.02;;
36355;SDS011;22384;54.302;18.596;2023-05-07T06:51:17;6.85;;;3.70;;
36355;SDS011;22384;54.302;18.596;2023-05-07T06:53:43;6.05;;;2.97;;
36355;SDS011;22384;54.302;18.596;2023-05-07T06:56:09;19.92;;;10.05;;
36355;SDS011;22384;54.302;18.596;2023-05-07T06:58:35;6.75;;;3.00;;
36355;SDS011;22384;54.302;18.596;2023-05-07T07:01:01;8.38;;;4.05;;
36355;SDS011;22384;54.302;18.596;2023-05-07T07:03:27;13.02;;;2.90;;
36355;SDS011;22384;54.302;18.596;2023-05-07T07:05:53;6.40;;;2.90;;
36355;SDS011;22384;54.302;18.596;2023-05-07T07:08:19;3.78;;;2.50;;
36355;SDS011;22384;54.302;18.596;2023-05-07T07:10:48;3.95;;;2.45;;
36355;SDS011;22384;54.302;18.596;2023-05-07T07:13:14;8.05;;;2.72;;
36355;SDS011;22384;54.302;18.596;2023-05-07T07:15:41;4.00;;;2.40;;
36355;SDS011;22384;54.302;18.596;2023-05-07T07:18:07;8.68;;;3.70;;
36355;SDS011;22384;54.302;18.596;2023-05-07T07:20:33;7.60;;;3.50;;
36355;SDS011;22384;54.302;18.596;2023-05-07T07:22:58;4.68;;;2.38;;
36355;SDS011;22384;54.302;18.596;2023-05-07T07:25:25;7.18;;;2.53;;
36355;SDS011;22384;54.302;18.596;2023-05-07T07:27:51;3.35;;;2.03;;
36355;SDS011;22384;54.302;18.596;2023-05-07T07:30:17;5.22;;;2.88;;
36355;SDS011;22384;54.302;18.596;2023-05-07T07:32:43;7.97;;;3.30;;
36355;SDS011;22384;54.302;18.596;2023-05-07T07:35:09;5.05;;;3.72;;
36355;SDS011;22384;54.302;18.596;2023-05-07T07:37:35;5.28;;;2.17;;
36355;SDS011;22384;54.302;18.596;2023-05-07T07:40:01;3.85;;;2.55;;
36355;SDS011;22384;54.302;18.596;2023-05-07T07:42:28;5.60;;;3.53;;
36355;SDS011;22384;54.302;18.596;2023-05-07T07:44:54;9.57;;;4.47;;
36355;SDS011;22384;54.302;18.596;2023-05-07T07:47:22;7.25;;;2.65;;
36355;SDS011;22384;54.302;18.596;2023-05-07T07:49:48;4.47;;;2.97;;
36355;SDS011;22384;54.302;18.596;2023-05-07T07:52:14;5.47;;;1.98;;
36355;SDS011;22384;54.302;18.596;2023-05-07T07:54:40;8.68;;;2.90;;
36355;SDS011;22384;54.302;18.596;2023-05-07T07:57:06;4.10;;;1.98;;
36355;SDS011;22384;54.302;18.596;2023-05-07T07:59:32;4.60;;;1.80;;
36355;SDS011;22384;54.302;18.596;2023-05-07T08:01:58;10.30;;;5.20;;
36355;SDS011;22384;54.302;18.596;2023-05-07T08:04:24;5.05;;;2.17;;
36355;SDS011;22384;54.302;18.596;2023-05-07T08:06:50;3.75;;;1.63;;
36355;SDS011;22384;54.302;18.596;2023-05-07T08:09:16;5.32;;;1.60;;
36355;SDS011;22384;54.302;18.596;2023-05-07T08:11:42;8.77;;;2.15;;
36355;SDS011;22384;54.302;18.596;2023-05-07T08:14:08;1.85;;;1.50;;
36355;SDS011;22384;54.302;18.596;2023-05-07T08:16:35;2.70;;;1.52;;
36355;SDS011;22384;54.302;18.596;2023-05-07T08:19:02;2.63;;;1.90;;
36355;SDS011;22384;54.302;18.596;2023-05-07T08:21:28;3.80;;;2.67;;
36355;SDS011;22384;54.302;18.596;2023-05-07T08:23:55;1.98;;;1.55;;
36355;SDS011;22384;54.302;18.596;2023-05-07T08:26:21;2.13;;;1.77;;
36355;SDS011;22384;54.302;18.596;2023-05-07T08:28:47;3.67;;;1.42;;
36355;SDS011;22384;54.302;18.596;2023-05-07T08:31:14;3.20;;;1.63;;
36355;SDS011;22384;54.302;18.596;2023-05-07T08:33:40;4.00;;;1.80;;
36355;SDS011;22384;54.302;18.596;2023-05-07T08:36:06;3.78;;;2.08;;
36355;SDS011;22384;54.302;18.596;2023-05-07T08:38:32;22.60;;;1.77;;
36355;SDS011;22384;54.302;18.596;2023-05-07T08:40:58;12.05;;;2.42;;
36355;SDS011;22384;54.302;18.596;2023-05-07T08:43:26;1.70;;;1.40;;
36355;SDS011;22384;54.302;18.596;2023-05-07T08:45:55;4.70;;;1.60;;
36355;SDS011;22384;54.302;18.596;2023-05-07T08:48:25;4.57;;;1.50;;
36355;SDS011;22384;54.302;18.596;2023-05-07T08:50:51;2.88;;;1.50;;
36355;SDS011;22384;54.302;18.596;2023-05-07T08:53:17;6.13;;;1.90;;
36355;SDS011;22384;54.302;18.596;2023-05-07T08:55:44;1.92;;;1.23;;
36355;SDS011;22384;54.302;18.596;2023-05-07T08:58:10;3.70;;;1.73;;
36355;SDS011;22384;54.302;18.596;2023-05-07T09:00:36;5.13;;;1.60;;
36355;SDS011;22384;54.302;18.596;2023-05-07T09:03:03;2.75;;;1.70;;
36355;SDS011;22384;54.302;18.596;2023-05-07T09:05:29;2.08;;;1.30;;
36355;SDS011;22384;54.302;18.596;2023-05-07T09:07:55;2.55;;;1.38;;
36355;SDS011;22384;54.302;18.596;2023-05-07T09:10:21;6.25;;;2.72;;
36355;SDS011;22384;54.302;18.596;2023-05-07T09:12:47;4.95;;;2.15;;
36355;SDS011;22384;54.302;18.596;2023-05-07T09:15:13;5.78;;;2.28;;
36355;SDS011;22384;54.302;18.596;2023-05-07T09:17:39;4.95;;;2.05;;
36355;SDS011;22384;54.302;18.596;2023-05-07T09:20:07;8.77;;;2.38;;
36355;SDS011;22384;54.302;18.596;2023-05-07T09:22:33;4.30;;;2.05;;
36355;SDS011;22384;54.302;18.596;2023-05-07T09:25:01;3.60;;;1.95;;
36355;SDS011;22384;54.302;18.596;2023-05-07T09:27:27;7.35;;;2.05;;
36355;SDS011;22384;54.302;18.596;2023-05-07T09:29:53;2.47;;;1.52;;
36355;SDS011;22384;54.302;18.596;2023-05-07T09:32:19;2.28;;;1.67;;
36355;SDS011;22384;54.302;18.596;2023-05-07T09:34:45;3.42;;;1.90;;
36355;SDS011;22384;54.302;18.596;2023-05-07T09:37:12;4.82;;;1.98;;
36355;SDS011;22384;54.302;18.596;2023-05-07T09:39:43;5.53;;;1.90;;
36355;SDS011;22384;54.302;18.596;2023-05-07T09:42:09;5.15;;;2.42;;
36355;SDS011;22384;54.302;18.596;2023-05-07T09:44:36;2.22;;;1.35;;
36355;SDS011;22384;54.302;18.596;2023-05-07T09:47:06;9.88;;;2.15;;
36355;SDS011;22384;54.302;18.596;2023-05-07T09:49:36;6.57;;;1.42;;
36355;SDS011;22384;54.302;18.596;2023-05-07T09:52:03;5.73;;;1.70;;
36355;SDS011;22384;54.302;18.596;2023-05-07T09:54:31;4.20;;;1.50;;
36355;SDS011;22384;54.302;18.596;2023-05-07T09:56:58;4.90;;;1.48;;
36355;SDS011;22384;54.302;18.596;2023-05-07T09:59:25;5.03;;;1.60;;
36355;SDS011;22384;54.302;18.596;2023-05-07T10:01:51;3.63;;;1.80;;
36355;SDS011;22384;54.302;18.596;2023-05-07T10:04:17;6.38;;;2.20;;
36355;SDS011;22384;54.302;18.596;2023-05-07T10:06:44;4.15;;;2.00;;
36355;SDS011;22384;54.302;18.596;2023-05-07T10:09:10;2.88;;;2.25;;
36355;SDS011;22384;54.302;18.596;2023-05-07T10:11:36;3.83;;;1.80;;
36355;SDS011;22384;54.302;18.596;2023-05-07T10:14:03;7.75;;;1.92;;
36355;SDS011;22384;54.302;18.596;2023-05-07T10:16:31;2.88;;;1.55;;
36355;SDS011;22384;54.302;18.596;2023-05-07T10:18:58;6.05;;;1.58;;
36355;SDS011;22384;54.302;18.596;2023-05-07T10:21:24;2.10;;;1.25;;
36355;SDS011;22384;54.302;18.596;2023-05-07T10:26:46;4.32;;;1.33;;
36355;SDS011;22384;54.302;18.596;2023-05-07T10:29:15;2.97;;;1.38;;
36355;SDS011;22384;54.302;18.596;2023-05-07T10:34:14;4.28;;;1.90;;
36355;SDS011;22384;54.302;18.596;2023-05-07T10:36:42;6.45;;;1.90;;
36355;SDS011;22384;54.302;18.596;2023-05-07T10:39:08;3.53;;;1.33;;
36355;SDS011;22384;54.302;18.596;2023-05-07T10:41:35;5.88;;;1.42;;
36355;SDS011;22384;54.302;18.596;2023-05-07T10:44:01;2.53;;;1.30;;
36355;SDS011;22384;54.302;18.596;2023-05-07T10:46:27;4.93;;;1.17;;
36355;SDS011;22384;54.302;18.596;2023-05-07T10:51:27;4.22;;;1.63;;
36355;SDS011;22384;54.302;18.596;2023-05-07T10:56:38;2.38;;;1.15;;
36355;SDS011;22384;54.302;18.596;2023-05-07T11:01:49;4.68;;;1.35;;
36355;SDS011;22384;54.302;18.596;2023-05-07T11:04:16;2.60;;;1.23;;
36355;SDS011;22384;54.302;18.596;2023-05-07T11:15:11;5.13;;;1.53;;
36355;SDS011;22384;54.302;18.596;2023-05-07T11:20:18;7.22;;;1.60;;
36355;SDS011;22384;54.302;18.596;2023-05-07T11:22:45;5.22;;;1.55;;
36355;SDS011;22384;54.302;18.596;2023-05-07T11:25:11;2.88;;;1.70;;
36355;SDS011;22384;54.302;18.596;2023-05-07T11:27:43;5.47;;;1.75;;
36355;SDS011;22384;54.302;18.596;2023-05-07T11:30:09;4.32;;;1.70;;
36355;SDS011;22384;54.302;18.596;2023-05-07T11:32:35;6.93;;;1.58;;
36355;SDS011;22384;54.302;18.596;2023-05-07T11:35:01;3.97;;;1.58;;
36355;SDS011;22384;54.302;18.596;2023-05-07T11:37:27;3.63;;;1.73;;
36355;SDS011;22384;54.302;18.596;2023-05-07T11:40:04;5.85;;;1.95;;
36355;SDS011;22384;54.302;18.596;2023-05-07T11:42:33;6.90;;;2.50;;
36355;SDS011;22384;54.302;18.596;2023-05-07T11:44:59;6.55;;;1.60;;
36355;SDS011;22384;54.302;18.596;2023-05-07T11:47:25;3.75;;;1.77;;
36355;SDS011;22384;54.302;18.596;2023-05-07T11:49:52;6.70;;;1.75;;
36355;SDS011;22384;54.302;18.596;2023-05-07T11:52:19;7.50;;;1.58;;
36355;SDS011;22384;54.302;18.596;2023-05-07T11:54:51;4.10;;;1.40;;
36355;SDS011;22384;54.302;18.596;2023-05-07T11:57:18;3.00;;;1.55;;
36355;SDS011;22384;54.302;18.596;2023-05-07T11:59:44;4.60;;;1.80;;
36355;SDS011;22384;54.302;18.596;2023-05-07T12:02:10;7.03;;;1.83;;
36355;SDS011;22384;54.302;18.596;2023-05-07T12:04:37;4.00;;;1.50;;
36355;SDS011;22384;54.302;18.596;2023-05-07T12:07:03;3.85;;;1.55;;
36355;SDS011;22384;54.302;18.596;2023-05-07T12:09:32;2.22;;;1.35;;
36355;SDS011;22384;54.302;18.596;2023-05-07T12:12:02;3.05;;;1.90;;
36355;SDS011;22384;54.302;18.596;2023-05-07T12:20:29;7.80;;;1.98;;
36355;SDS011;22384;54.302;18.596;2023-05-07T12:22:55;3.33;;;1.70;;
36355;SDS011;22384;54.302;18.596;2023-05-07T12:25:21;5.22;;;1.92;;
36355;SDS011;22384;54.302;18.596;2023-05-07T12:27:51;3.28;;;2.00;;
36355;SDS011;22384;54.302;18.596;2023-05-07T12:30:17;4.38;;;1.90;;
36355;SDS011;22384;54.302;18.596;2023-05-07T12:32:44;4.95;;;1.98;;
36355;SDS011;22384;54.302;18.596;2023-05-07T12:35:10;6.07;;;1.98;;
36355;SDS011;22384;54.302;18.596;2023-05-07T12:37:36;5.38;;;1.70;;
36355;SDS011;22384;54.302;18.596;2023-05-07T12:40:11;5.68;;;1.65;;
36355;SDS011;22384;54.302;18.596;2023-05-07T12:42:38;5.05;;;1.88;;
36355;SDS011;22384;54.302;18.596;2023-05-07T12:45:11;4.63;;;1.60;;
36355;SDS011;22384;54.302;18.596;2023-05-07T12:47:37;4.00;;;1.50;;
36355;SDS011;22384;54.302;18.596;2023-05-07T12:50:05;4.25;;;1.70;;
36355;SDS011;22384;54.302;18.596;2023-05-07T12:52:31;5.43;;;1.95;;
36355;SDS011;22384;54.302;18.596;2023-05-07T12:54:57;2.90;;;1.70;;
36355;SDS011;22384;54.302;18.596;2023-05-07T12:57:30;7.32;;;2.25;;
36355;SDS011;22384;54.302;18.596;2023-05-07T12:59:57;4.80;;;1.77;;
36355;SDS011;22384;54.302;18.596;2023-05-07T13:02:31;2.58;;;1.50;;
36355;SDS011;22384;54.302;18.596;2023-05-07T13:04:57;3.47;;;2.10;;
36355;SDS011;22384;54.302;18.596;2023-05-07T13:07:24;6.88;;;2.20;;
36355;SDS011;22384;54.302;18.596;2023-05-07T13:09:50;4.82;;;1.73;;
36355;SDS011;22384;54.302;18.596;2023-05-07T13:12:16;5.60;;;1.85;;
36355;SDS011;22384;54.302;18.596;2023-05-07T13:14:42;6.85;;;2.30;;
36355;SDS011;22384;54.302;18.596;2023-05-07T13:17:08;4.25;;;1.70;;
36355;SDS011;22384;54.302;18.596;2023-05-07T13:19:34;3.63;;;2.20;;
36355;SDS011;22384;54.302;18.596;2023-05-07T13:22:02;2.40;;;1.73;;
36355;SDS011;22384;54.302;18.596;2023-05-07T13:24:28;3.70;;;1.77;;
36355;SDS011;22384;54.302;18.596;2023-05-07T13:26:54;10.20;;;2.30;;
36355;SDS011;22384;54.302;18.596;2023-05-07T13:29:20;3.50;;;2.20;;
36355;SDS011;22384;54.302;18.596;2023-05-07T13:31:54;2.78;;;1.65;;
36355;SDS011;22384;54.302;18.596;2023-05-07T13:34:20;2.72;;;1.98;;
36355;SDS011;22384;54.302;18.596;2023-05-07T13:36:46;5.05;;;2.08;;
36355;SDS011;22384;54.302;18.596;2023-05-07T13:39:12;6.13;;;1.90;;
36355;SDS011;22384;54.302;18.596;2023-05-07T13:41:38;4.45;;;2.13;;
36355;SDS011;22384;54.302;18.596;2023-05-07T13:44:04;10.25;;;2.40;;
36355;SDS011;22384;54.302;18.596;2023-05-07T13:46:30;4.57;;;2.00;;
36355;SDS011;22384;54.302;18.596;2023-05-07T13:48:56;3.83;;;2.00;;
36355;SDS011;22384;54.302;18.596;2023-05-07T13:51:22;4.18;;;1.70;;
36355;SDS011;22384;54.302;18.596;2023-05-07T13:53:48;3.72;;;1.90;;
36355;SDS011;22384;54.302;18.596;2023-05-07T13:56:15;6.63;;;2.38;;
36355;SDS011;22384;54.302;18.596;2023-05-07T13:58:41;6.57;;;3.65;;
36355;SDS011;22384;54.302;18.596;2023-05-07T14:01:07;3.83;;;1.92;;
36355;SDS011;22384;54.302;18.596;2023-05-07T14:03:33;5.85;;;2.20;;
36355;SDS011;22384;54.302;18.596;2023-05-07T14:06:00;5.55;;;2.08;;
36355;SDS011;22384;54.302;18.596;2023-05-07T14:08:26;5.18;;;2.10;;
36355;SDS011;22384;54.302;18.596;2023-05-07T14:10:53;7.07;;;2.33;;
36355;SDS011;22384;54.302;18.596;2023-05-07T14:13:19;3.60;;;2.13;;
36355;SDS011;22384;54.302;18.596;2023-05-07T14:15:45;8.32;;;2.55;;
36355;SDS011;22384;54.302;18.596;2023-05-07T14:18:15;6.65;;;2.63;;
36355;SDS011;22384;54.302;18.596;2023-05-07T14:20:41;5.10;;;2.80;;
36355;SDS011;22384;54.302;18.596;2023-05-07T14:23:12;6.32;;;2.45;;
36355;SDS011;22384;54.302;18.596;2023-05-07T14:25:39;5.60;;;2.63;;
36355;SDS011;22384;54.302;18.596;2023-05-07T14:28:06;8.18;;;3.20;;
36355;SDS011;22384;54.302;18.596;2023-05-07T14:30:32;10.30;;;2.85;;
36355;SDS011;22384;54.302;18.596;2023-05-07T14:32:58;7.97;;;3.30;;
36355;SDS011;22384;54.302;18.596;2023-05-07T14:35:24;5.35;;;2.50;;
36355;SDS011;22384;54.302;18.596;2023-05-07T14:37:50;9.07;;;3.25;;
36355;SDS011;22384;54.302;18.596;2023-05-07T14:40:16;6.15;;;2.70;;
36355;SDS011;22384;54.302;18.596;2023-05-07T14:42:42;8.95;;;3.78;;
36355;SDS011;22384;54.302;18.596;2023-05-07T14:45:08;9.25;;;3.67;;
36355;SDS011;22384;54.302;18.596;2023-05-07T14:47:34;7.53;;;3.08;;
36355;SDS011;22384;54.302;18.596;2023-05-07T14:50:00;10.18;;;3.97;;
36355;SDS011;22384;54.302;18.596;2023-05-07T14:52:26;8.40;;;3.83;;
36355;SDS011;22384;54.302;18.596;2023-05-07T14:54:52;10.00;;;2.90;;
36355;SDS011;22384;54.302;18.596;2023-05-07T14:57:18;6.95;;;2.83;;
36355;SDS011;22384;54.302;18.596;2023-05-07T14:59:45;8.73;;;3.47;;